createdAt,value
2022-10-26T00:02:39.401Z,91.84
2022-10-26T00:07:42.182Z,92.11
2022-10-26T00:12:48.272Z,92.39
2022-10-26T00:17:52.022Z,92.51
2022-10-26T00:22:54.938Z,92.71
2022-10-26T00:27:57.696Z,93.08
2022-10-26T00:33:00.535Z,93.31
2022-10-26T00:38:03.356Z,93.67
2022-10-26T00:43:36.190Z,93.81
2022-10-26T00:48:44.812Z,93.90
2022-10-26T00:53:48.065Z,94.35
2022-10-26T00:58:51.246Z,94.42
2022-10-26T01:03:54.290Z,94.66
2022-10-26T01:08:57.226Z,94.99
2022-10-26T01:14:01.734Z,95.12
2022-10-26T01:19:19.763Z,95.84
2022-10-26T01:24:50.692Z,95.87
2022-10-26T01:30:44.026Z,95.61
2022-10-26T01:36:02.007Z,95.64
2022-10-26T01:41:10.949Z,95.75
2022-10-26T01:46:14.999Z,95.84
2022-10-26T01:51:19.385Z,96.07
2022-10-26T01:56:25.443Z,96.28
2022-10-26T02:01:52.111Z,96.65
2022-10-26T02:07:05.524Z,96.36
2022-10-26T02:12:17.083Z,96.54
2022-10-26T02:17:36.920Z,96.45
2022-10-26T02:22:45.414Z,96.71
2022-10-26T02:27:52.791Z,96.70
2022-10-26T02:32:57.850Z,96.72
2022-10-26T02:38:03.250Z,97.22
2022-10-26T02:43:10.853Z,97.51
2022-10-26T02:48:14.447Z,97.64
2022-10-26T02:53:23.209Z,98.08
2022-10-26T02:58:33.539Z,98.33
2022-10-26T03:03:36.459Z,98.36
2022-10-26T03:08:39.247Z,98.36
2022-10-26T03:13:42.144Z,98.53
2022-10-26T03:18:44.926Z,98.80
2022-10-26T03:23:48.087Z,98.80
2022-10-26T03:28:50.923Z,98.81
2022-10-26T03:33:53.769Z,98.69
2022-10-26T03:38:56.540Z,98.80
2022-10-26T03:43:59.401Z,98.83
2022-10-26T03:49:02.246Z,98.89
2022-10-26T03:54:05.812Z,98.66
2022-10-26T03:59:08.617Z,98.61
2022-10-26T04:04:11.483Z,98.58
2022-10-26T04:09:14.459Z,98.96
2022-10-26T04:14:17.276Z,99.10
2022-10-26T04:19:20.114Z,99.08
2022-10-26T04:24:22.981Z,99.21
2022-10-26T04:29:25.840Z,99.44
2022-10-26T04:34:28.628Z,99.53
2022-10-26T04:39:31.464Z,99.39
2022-10-26T04:44:34.229Z,99.54
2022-10-26T04:49:37.032Z,99.59
2022-10-26T04:54:39.850Z,99.61
2022-10-26T04:59:42.525Z,99.51
2022-10-26T05:04:45.389Z,99.50
2022-10-26T05:09:48.284Z,99.72
2022-10-26T05:14:51.107Z,99.68
2022-10-26T05:19:55.851Z,99.72
2022-10-26T05:24:58.686Z,99.68
2022-10-26T05:30:01.500Z,99.64
2022-10-26T05:35:05.122Z,99.58
2022-10-26T05:40:08.526Z,99.53
2022-10-26T05:45:12.487Z,99.57
2022-10-26T05:50:15.366Z,99.82
2022-10-26T05:55:24.193Z,99.87
2022-10-26T06:00:28.642Z,99.94
2022-10-26T06:05:35.769Z,99.95
2022-10-26T06:10:39.413Z,100.00
2022-10-26T06:15:57.285Z,100.00
2022-10-26T06:21:54.412Z,100.00
2022-10-26T06:27:24.918Z,100.00
2022-10-26T06:32:28.282Z,100.00
2022-10-26T06:37:31.880Z,100.00
2022-10-26T06:42:35.032Z,100.00
2022-10-26T06:47:46.243Z,100.00
2022-10-26T06:52:58.202Z,100.00
2022-10-26T06:58:02.290Z,100.00
2022-10-26T07:03:05.142Z,100.00
2022-10-26T07:08:07.940Z,100.00
2022-10-26T07:13:11.324Z,100.00
2022-10-26T07:18:14.545Z,100.00
2022-10-26T07:23:17.250Z,98.92
2022-10-26T07:28:20.197Z,93.16
2022-10-26T07:33:23.126Z,88.44
2022-10-26T07:38:25.730Z,85.62
2022-10-26T07:43:28.515Z,83.26
2022-10-26T07:48:31.109Z,82.36
2022-10-26T07:53:33.984Z,81.29
2022-10-26T07:58:37.312Z,80.86
2022-10-26T08:03:40.657Z,81.64
2022-10-26T08:08:46.418Z,81.56
2022-10-26T08:13:54.637Z,81.23
2022-10-26T08:18:57.689Z,81.04
2022-10-26T08:24:00.679Z,80.52
2022-10-26T08:29:03.744Z,80.94
2022-10-26T08:34:06.624Z,80.17
2022-10-26T08:39:09.575Z,79.39
2022-10-26T08:44:36.335Z,78.67
2022-10-26T08:50:06.579Z,79.60
2022-10-26T08:55:18.947Z,78.02
2022-10-26T09:00:23.430Z,78.58
2022-10-26T09:05:36.880Z,77.24
2022-10-26T09:10:58.749Z,76.70
2022-10-26T09:16:20.237Z,76.65
2022-10-26T09:21:36.129Z,76.60
2022-10-26T09:26:55.596Z,76.59
2022-10-26T09:32:01.136Z,76.01
2022-10-26T09:37:20.287Z,74.60
2022-10-26T09:42:33.559Z,74.37
2022-10-26T09:47:39.084Z,73.87
2022-10-26T09:52:41.938Z,73.83
2022-10-26T09:57:50.420Z,73.51
2022-10-26T10:02:58.203Z,74.39
2022-10-26T10:08:13.172Z,75.27
2022-10-26T10:13:17.522Z,74.43
2022-10-26T10:18:24.083Z,74.88
2022-10-26T10:23:29.013Z,75.26
2022-10-26T10:28:33.441Z,73.85
2022-10-26T10:33:40.822Z,74.30
2022-10-26T10:38:45.141Z,73.47
2022-10-26T10:44:07.413Z,72.91
2022-10-26T10:49:27.859Z,73.02
2022-10-26T10:54:39.339Z,73.16
2022-10-26T10:59:49.369Z,73.96
2022-10-26T11:04:56.585Z,73.65
2022-10-26T11:10:02.920Z,73.47
2022-10-26T11:15:10.552Z,73.45
2022-10-26T11:20:17.795Z,73.02
2022-10-26T11:25:29.061Z,72.78
2022-10-26T11:30:34.091Z,72.02
2022-10-26T11:35:49.173Z,71.52
2022-10-26T11:41:03.233Z,70.96
2022-10-26T11:46:16.559Z,71.47
2022-10-26T11:51:35.845Z,71.59
2022-10-26T11:56:44.398Z,71.94
2022-10-26T12:01:52.544Z,71.44
2022-10-26T12:06:58.901Z,71.21
2022-10-26T12:12:09.675Z,70.58
2022-10-26T12:17:15.475Z,69.47
2022-10-26T12:22:19.904Z,69.40
2022-10-26T12:27:41.080Z,68.12
2022-10-26T12:32:43.975Z,67.78
2022-10-26T12:37:46.808Z,67.87
2022-10-26T12:42:49.599Z,68.02
2022-10-26T12:47:54.309Z,67.84
2022-10-26T12:53:10.909Z,67.44
2022-10-26T12:58:23.613Z,67.03
2022-10-26T13:03:48.458Z,65.93
2022-10-26T13:08:57.838Z,66.16
2022-10-26T13:14:09.072Z,65.01
2022-10-26T13:19:30.365Z,64.25
2022-10-26T13:24:35.008Z,64.59
2022-10-26T13:30:15.410Z,65.34
2022-10-26T13:35:20.244Z,66.48
2022-10-26T13:40:28.414Z,66.50
2022-10-26T13:45:39.355Z,66.74
2022-10-26T13:50:52.072Z,66.77
2022-10-26T13:56:02.297Z,67.19
2022-10-26T14:01:10.409Z,66.79
2022-10-26T14:06:38.891Z,66.83
2022-10-26T14:11:53.133Z,67.21
2022-10-26T14:16:56.731Z,67.56
2022-10-26T14:22:00.109Z,68.22
2022-10-26T14:27:02.939Z,69.00
2022-10-26T14:32:34.048Z,69.03
2022-10-26T14:37:50.116Z,70.24
2022-10-26T14:42:55.784Z,70.79
2022-10-26T14:47:59.608Z,70.56
2022-10-26T14:53:14.927Z,71.15
2022-10-26T14:58:32.990Z,70.95
2022-10-26T15:03:38.536Z,71.50
2022-10-26T15:08:56.321Z,71.86
2022-10-26T15:14:00.343Z,72.19
2022-10-26T15:19:16.018Z,72.94
2022-10-26T15:24:38.638Z,73.53
2022-10-26T15:29:47.107Z,74.35
2022-10-26T15:35:07.514Z,75.05
2022-10-26T15:40:11.194Z,75.57
2022-10-26T15:45:27.882Z,75.78
2022-10-26T15:50:31.014Z,76.17
2022-10-26T15:55:33.916Z,76.86
2022-10-26T16:00:37.275Z,76.98
2022-10-26T16:05:40.279Z,77.26
2022-10-26T16:10:43.620Z,77.59
2022-10-26T16:15:47.056Z,77.99
2022-10-26T16:20:49.763Z,78.36
2022-10-26T16:25:52.643Z,78.97
2022-10-26T16:31:03.596Z,79.50
2022-10-26T16:36:07.348Z,79.79
2022-10-26T16:41:14.591Z,80.09
2022-10-26T16:46:20.089Z,80.64
2022-10-26T16:51:24.875Z,80.17
2022-10-26T16:56:29.132Z,80.57
2022-10-26T17:01:32.466Z,80.78
2022-10-26T17:06:35.555Z,81.17
2022-10-26T17:11:38.473Z,81.74
2022-10-26T17:16:41.506Z,82.01
2022-10-26T17:21:44.558Z,82.57
2022-10-26T17:26:47.580Z,82.77
2022-10-26T17:31:50.367Z,82.89
2022-10-26T17:36:53.554Z,83.32
2022-10-26T17:41:56.733Z,83.40
2022-10-26T17:47:00.002Z,83.68
2022-10-26T17:52:02.751Z,84.12
2022-10-26T17:57:05.639Z,84.46
2022-10-26T18:02:10.213Z,84.78
2022-10-26T18:07:13.326Z,85.08
2022-10-26T18:12:16.082Z,85.28
2022-10-26T18:17:19.255Z,85.55
2022-10-26T18:22:22.028Z,85.80
2022-10-26T18:27:24.782Z,85.63
2022-10-26T18:32:27.339Z,85.84
2022-10-26T18:37:30.250Z,86.37
2022-10-26T18:42:33.052Z,86.48
2022-10-26T18:47:35.936Z,87.01
2022-10-26T18:52:38.693Z,87.04
2022-10-26T18:57:41.446Z,87.47
2022-10-26T19:02:44.894Z,88.08
2022-10-26T19:07:49.984Z,88.89
2022-10-26T19:12:53.271Z,89.48
2022-10-26T19:17:57.952Z,90.06
2022-10-26T19:23:00.734Z,91.06
2022-10-26T19:28:03.657Z,91.43
2022-10-26T19:33:06.433Z,91.83
2022-10-26T19:38:09.215Z,92.07
2022-10-26T19:43:12.627Z,92.30
2022-10-26T19:48:15.395Z,92.18
2022-10-26T19:53:18.607Z,92.51
2022-10-26T19:58:21.477Z,93.00
2022-10-26T20:03:24.814Z,93.13
2022-10-26T20:08:28.119Z,93.45
2022-10-26T20:13:31.342Z,93.76
2022-10-26T20:18:34.873Z,94.14
2022-10-26T20:23:37.830Z,94.28
2022-10-26T20:28:45.685Z,94.97
2022-10-26T20:33:52.781Z,95.42
2022-10-26T20:38:55.885Z,95.83
2022-10-26T20:43:59.056Z,96.23
2022-10-26T20:49:02.160Z,96.41
2022-10-26T20:54:33.837Z,96.48
2022-10-26T21:00:03.834Z,96.87
2022-10-26T21:05:07.119Z,97.30
2022-10-26T21:10:10.161Z,97.69
2022-10-26T21:15:12.875Z,97.93
2022-10-26T21:20:15.604Z,97.78
2022-10-26T21:25:18.602Z,97.36
2022-10-26T21:30:21.794Z,97.59
2022-10-26T21:35:24.596Z,97.69
2022-10-26T21:40:27.372Z,98.19
2022-10-26T21:45:30.178Z,98.44
2022-10-26T21:50:32.774Z,98.53
2022-10-26T21:55:35.473Z,98.46
2022-10-26T22:00:38.080Z,98.29
2022-10-26T22:05:45.032Z,97.98
2022-10-26T22:10:48.767Z,97.81
2022-10-26T22:16:24.950Z,97.40
2022-10-26T22:21:31.988Z,97.43
2022-10-26T22:26:36.583Z,97.38
2022-10-26T22:31:40.557Z,96.91
2022-10-26T22:36:43.975Z,96.75
2022-10-26T22:41:49.181Z,96.57
2022-10-26T22:46:51.948Z,96.55
2022-10-26T22:51:54.702Z,96.12
2022-10-26T22:56:57.602Z,96.00
2022-10-26T23:02:00.513Z,96.04
2022-10-26T23:07:03.551Z,96.11
2022-10-26T23:12:06.387Z,95.94
2022-10-26T23:17:10.027Z,95.99
2022-10-26T23:22:12.841Z,96.39
2022-10-26T23:27:15.560Z,96.41
2022-10-26T23:32:18.682Z,97.02
2022-10-26T23:37:21.433Z,97.52
2022-10-26T23:42:24.217Z,98.04
2022-10-26T23:47:26.946Z,98.13
2022-10-26T23:52:29.727Z,98.24
2022-10-26T23:57:32.289Z,98.31
